Time;durP1;ratioP1;P1;durP2;ratioP2;P2;SDS_P1;SDS_P2;PMS_P1;PMS_P2;Temp;Humidity;BMP_temperature;BMP_pressure;BME280_temperature;BME280_humidity;BME280_pressure;Samples;Min_cycle;Max_cycle;Signal;HPM_P1;HPM_P2
2021/07/05 00:01:53;;;;;;;10.50;4.78;;;17.50;99.90;;;;;;6214210;23;20165;-73
2021/07/05 00:04:20;;;;;;;7.78;4.68;;;17.50;99.90;;;;;;6214616;23;20266;-73
2021/07/05 00:06:47;;;;;;;8.70;4.40;;;17.50;99.90;;;;;;6214722;23;20637;-71
2021/07/05 00:09:14;;;;;;;13.27;4.80;;;17.40;99.90;;;;;;6214214;23;20166;-71
2021/07/05 00:11:41;;;;;;;8.20;4.40;;;17.30;99.90;;;;;;6214170;23;20163;-71
2021/07/05 00:14:09;;;;;;;8.90;4.88;;;17.30;99.90;;;;;;6214490;23;20238;-70
2021/07/05 00:16:37;;;;;;;8.07;4.63;;;17.30;99.90;;;;;;6214545;23;20160;-71
2021/07/05 00:19:04;;;;;;;8.20;4.70;;;17.40;99.90;;;;;;6213917;23;20174;-71
2021/07/05 00:21:31;;;;;;;8.23;4.60;;;17.30;99.90;;;;;;6214001;23;20246;-71
2021/07/05 00:23:58;;;;;;;7.53;4.63;;;17.30;99.90;;;;;;6214219;23;20622;-71
2021/07/05 00:26:24;;;;;;;6.07;4.80;;;17.30;99.90;;;;;;6214198;23;20641;-71
2021/07/05 00:28:51;;;;;;;8.05;4.65;;;17.30;99.90;;;;;;6213748;23;20163;-71
2021/07/05 00:31:19;;;;;;;10.45;4.80;;;17.30;99.90;;;;;;6213523;23;20160;-71
2021/07/05 00:33:46;;;;;;;7.65;4.60;;;17.20;99.90;;;;;;6214702;23;20239;-71
2021/07/05 00:36:13;;;;;;;8.57;4.60;;;17.20;99.90;;;;;;6213985;23;20242;-71
2021/07/05 00:38:40;;;;;;;8.48;4.38;;;17.10;99.90;;;;;;6213387;23;20167;-70
2021/07/05 00:41:07;;;;;;;10.52;4.15;;;17.20;99.90;;;;;;6213364;23;20174;-73
2021/07/05 00:43:34;;;;;;;9.25;4.32;;;17.20;99.90;;;;;;6214093;23;20641;-72
2021/07/05 00:46:01;;;;;;;14.55;4.40;;;17.10;99.90;;;;;;6213839;23;20163;-72
2021/07/05 00:48:30;;;;;;;12.02;4.30;;;17.00;99.90;;;;;;6213783;23;20198;-73
2021/07/05 00:50:57;;;;;;;6.78;4.30;;;17.10;99.90;;;;;;6212601;23;20159;-73
2021/07/05 00:53:24;;;;;;;11.45;4.00;;;17.00;99.90;;;;;;6214444;23;20155;-72
2021/07/05 00:55:52;;;;;;;7.43;4.38;;;17.10;99.90;;;;;;6214757;23;20501;-72
2021/07/05 00:58:19;;;;;;;9.60;4.57;;;17.10;99.90;;;;;;6214589;23;20167;-73
2021/07/05 01:00:46;;;;;;;11.93;4.93;;;17.20;99.90;;;;;;6213727;23;20166;-72
2021/07/05 01:03:13;;;;;;;9.88;4.70;;;17.10;99.90;;;;;;6214039;23;20664;-73
2021/07/05 01:05:41;;;;;;;8.75;4.70;;;17.20;99.90;;;;;;6214983;23;20169;-72
2021/07/05 01:08:08;;;;;;;10.80;4.70;;;17.30;99.90;;;;;;6214104;23;20230;-73
2021/07/05 01:10:36;;;;;;;8.98;4.38;;;17.20;99.90;;;;;;6214275;23;20591;-73
2021/07/05 01:13:03;;;;;;;10.95;4.35;;;17.20;99.90;;;;;;6213922;23;20170;-73
2021/07/05 01:15:32;;;;;;;11.73;4.50;;;17.10;99.90;;;;;;6214792;23;20160;-72
2021/07/05 01:18:02;;;;;;;7.50;4.63;;;17.00;99.90;;;;;;6214274;23;20159;-73
2021/07/05 01:20:30;;;;;;;9.43;4.88;;;17.00;99.90;;;;;;6213859;23;20187;-72
2021/07/05 01:22:59;;;;;;;9.18;4.80;;;17.00;99.90;;;;;;6214585;23;20483;-73
2021/07/05 01:25:28;;;;;;;6.90;4.88;;;16.90;99.90;;;;;;6214377;23;20159;-73
2021/07/05 01:27:56;;;;;;;10.80;4.88;;;16.90;99.90;;;;;;6214550;23;20585;-73
2021/07/05 01:30:25;;;;;;;10.82;5.60;;;16.90;99.90;;;;;;6213228;23;20163;-72
2021/07/05 01:32:57;;;;;;;10.50;4.93;;;16.90;99.90;;;;;;6214454;23;20163;-73
2021/07/05 01:35:24;;;;;;;8.50;5.80;;;17.00;99.90;;;;;;6214308;23;20600;-73
2021/07/05 01:37:52;;;;;;;10.73;6.00;;;16.90;99.90;;;;;;6214464;23;20247;-73
2021/07/05 01:40:20;;;;;;;11.32;5.53;;;16.90;99.90;;;;;;6214064;23;20159;-73
2021/07/05 01:42:51;;;;;;;9.35;5.45;;;16.90;99.90;;;;;;6214526;23;20187;-73
2021/07/05 01:45:19;;;;;;;11.23;6.30;;;16.80;99.90;;;;;;6214180;23;20590;-73
2021/07/05 01:47:46;;;;;;;10.55;5.35;;;16.80;99.90;;;;;;6213929;23;20167;-73
2021/07/05 01:50:13;;;;;;;10.32;5.68;;;16.90;99.90;;;;;;6213487;23;20170;-73
2021/07/05 01:52:40;;;;;;;8.70;5.63;;;17.00;99.90;;;;;;6214191;23;20480;-73
2021/07/05 01:55:08;;;;;;;11.93;5.65;;;17.00;99.90;;;;;;6214200;23;20191;-73
2021/07/05 01:57:36;;;;;;;12.52;4.75;;;16.90;99.90;;;;;;6213837;23;20582;-73
2021/07/05 02:00:09;;;;;;;8.48;5.22;;;16.90;99.90;;;;;;6213278;23;20250;-73
2021/07/05 02:02:36;;;;;;;11.68;6.05;;;16.90;99.90;;;;;;6213918;23;20242;-73
2021/07/05 02:05:09;;;;;;;11.15;5.80;;;16.80;99.90;;;;;;6214177;23;20189;-73
2021/07/05 02:07:36;;;;;;;10.73;6.10;;;16.80;99.90;;;;;;6213747;23;20194;-73
2021/07/05 02:10:07;;;;;;;9.75;5.97;;;16.70;99.90;;;;;;6213184;23;20167;-73
2021/07/05 02:12:36;;;;;;;14.13;5.85;;;16.70;99.90;;;;;;6213999;23;20163;-73
2021/07/05 02:15:05;;;;;;;10.73;5.97;;;16.70;99.90;;;;;;6212179;23;20209;-74
2021/07/05 02:17:32;;;;;;;9.23;5.22;;;16.60;99.90;;;;;;6211249;23;20167;-74
2021/07/05 02:19:59;;;;;;;6.93;5.22;;;16.50;99.90;;;;;;6212635;23;20160;-74
2021/07/05 02:22:26;;;;;;;8.20;4.85;;;16.50;99.90;;;;;;6213425;23;20210;-74
2021/07/05 02:24:53;;;;;;;6.95;4.78;;;16.50;99.90;;;;;;6213313;23;20186;-74
2021/07/05 02:27:20;;;;;;;14.68;4.95;;;16.50;99.90;;;;;;6213614;23;20214;-74
2021/07/05 02:29:49;;;;;;;7.82;4.43;;;16.60;99.90;;;;;;6210210;23;20155;-74
2021/07/05 02:32:16;;;;;;;6.03;4.00;;;16.40;99.90;;;;;;6212561;23;20164;-74
2021/07/05 02:34:43;;;;;;;6.85;3.70;;;16.50;99.90;;;;;;6212306;23;20210;-74
2021/07/05 02:37:10;;;;;;;9.65;3.75;;;16.30;99.90;;;;;;6212424;23;20163;-74
2021/07/05 02:39:37;;;;;;;6.80;3.20;;;16.50;99.90;;;;;;6211873;23;20461;-74
2021/07/05 02:42:04;;;;;;;5.45;3.45;;;16.30;99.90;;;;;;6213000;23;20587;-74
2021/07/05 02:44:31;;;;;;;6.75;3.38;;;16.20;99.90;;;;;;6212332;23;20179;-74
2021/07/05 02:46:59;;;;;;;6.78;3.25;;;16.20;99.90;;;;;;6212675;23;20533;-74
2021/07/05 02:49:26;;;;;;;6.28;3.13;;;16.10;99.90;;;;;;6213133;23;20156;-74
2021/07/05 02:51:53;;;;;;;11.65;3.20;;;16.10;99.90;;;;;;6209592;23;20171;-74
2021/07/05 02:54:20;;;;;;;5.00;3.03;;;16.30;99.90;;;;;;6212386;23;20583;-74
2021/07/05 02:56:47;;;;;;;8.75;3.28;;;16.20;99.90;;;;;;6211184;23;20160;-74
2021/07/05 02:59:15;;;;;;;7.68;3.00;;;16.20;99.90;;;;;;6212704;23;20207;-74
2021/07/05 03:01:42;;;;;;;4.60;2.92;;;16.10;99.90;;;;;;6211571;23;20182;-74
2021/07/05 03:04:10;;;;;;;8.05;3.08;;;16.00;99.90;;;;;;6212922;23;20183;-74
2021/07/05 03:06:37;;;;;;;4.72;2.88;;;16.00;99.90;;;;;;6212165;23;20286;-74
2021/07/05 03:09:05;;;;;;;7.60;2.67;;;16.00;99.90;;;;;;6212773;23;20156;-74
2021/07/05 03:11:32;;;;;;;6.38;3.10;;;15.90;99.90;;;;;;6210719;23;20455;-74
2021/07/05 03:13:59;;;;;;;7.40;2.95;;;16.00;99.90;;;;;;6212704;23;20586;-74
2021/07/05 03:16:26;;;;;;;3.88;2.60;;;15.90;99.90;;;;;;6212120;23;20164;-74
2021/07/05 03:18:53;;;;;;;4.22;2.63;;;16.00;99.90;;;;;;6212699;23;20493;-74
2021/07/05 03:21:21;;;;;;;7.38;3.40;;;15.90;99.90;;;;;;6212712;23;20168;-74
2021/07/05 03:23:48;;;;;;;6.50;2.75;;;15.80;99.90;;;;;;6213994;23;20257;-74
2021/07/05 03:26:15;;;;;;;7.22;2.67;;;15.80;99.90;;;;;;6213610;23;20590;-74
2021/07/05 03:28:42;;;;;;;5.80;2.67;;;15.70;99.90;;;;;;6212875;23;20167;-74
2021/07/05 03:31:09;;;;;;;7.80;3.10;;;15.70;99.90;;;;;;6212475;23;20167;-74
2021/07/05 03:33:36;;;;;;;8.68;3.10;;;15.60;99.90;;;;;;6212765;23;20229;-74
2021/07/05 03:36:03;;;;;;;6.00;2.78;;;15.60;99.90;;;;;;6212533;23;20218;-74
2021/07/05 03:38:32;;;;;;;14.00;8.23;;;15.60;99.90;;;;;;6213932;23;20563;-74
2021/07/05 03:40:59;;;;;;;9.50;2.72;;;15.60;99.90;;;;;;6213275;23;20206;-74
2021/07/05 03:43:26;;;;;;;5.47;2.78;;;15.70;99.90;;;;;;6214101;23;20218;-74
2021/07/05 03:45:53;;;;;;;8.85;3.40;;;15.60;99.90;;;;;;6213785;23;20614;-74
2021/07/05 03:48:20;;;;;;;14.23;7.78;;;15.70;99.90;;;;;;6214041;23;20156;-74
2021/07/05 03:50:47;;;;;;;6.10;2.83;;;15.60;99.90;;;;;;6213331;23;20159;-74
2021/07/05 03:53:14;;;;;;;6.78;2.72;;;15.70;99.90;;;;;;6214205;23;20155;-74
2021/07/05 03:55:42;;;;;;;9.40;2.75;;;15.70;99.90;;;;;;6213975;23;20209;-74
2021/07/05 03:58:09;;;;;;;3.92;2.17;;;15.60;99.90;;;;;;6212662;23;20414;-74
2021/07/05 04:00:39;;;;;;;6.72;2.40;;;15.60;99.90;;;;;;6212661;23;20156;-74
2021/07/05 04:03:07;;;;;;;7.40;2.78;;;15.70;99.90;;;;;;6212915;23;20523;-74
2021/07/05 04:05:35;;;;;;;4.30;2.42;;;15.70;99.90;;;;;;6213139;23;20183;-74
2021/07/05 04:08:03;;;;;;;6.78;2.58;;;15.80;99.90;;;;;;6196483;22;20209;-73
2021/07/05 04:10:30;;;;;;;3.53;2.15;;;15.80;99.90;;;;;;6182111;23;20168;-74
2021/07/05 04:12:59;;;;;;;6.75;2.30;;;16.00;99.90;;;;;;6184486;23;20215;-74
2021/07/05 04:15:27;;;;;;;7.90;2.50;;;16.00;99.90;;;;;;6184048;23;20596;-73
2021/07/05 04:17:54;;;;;;;3.70;2.33;;;15.90;99.90;;;;;;6183829;23;20650;-73
2021/07/05 04:20:23;;;;;;;5.70;3.00;;;15.90;99.90;;;;;;6183179;23;20168;-73
2021/07/05 04:22:50;;;;;;;13.20;3.85;;;15.90;99.90;;;;;;6184769;23;20601;-73
2021/07/05 04:25:18;;;;;;;9.18;3.35;;;15.90;99.90;;;;;;6184008;23;20187;-73
2021/07/05 04:27:47;;;;;;;5.15;3.17;;;15.80;99.90;;;;;;6184327;23;20160;-70
2021/07/05 04:30:18;;;;;;;4.35;3.58;;;15.90;99.90;;;;;;6182818;23;20259;-73
2021/07/05 04:32:46;;;;;;;9.05;4.07;;;15.90;99.90;;;;;;6183442;23;20206;-73
2021/07/05 04:35:18;;;;;;;6.43;3.30;;;15.90;99.90;;;;;;6183738;23;20160;-74
2021/07/05 04:37:46;;;;;;;7.82;3.47;;;15.80;99.90;;;;;;6183663;23;20590;-73
2021/07/05 04:40:15;;;;;;;6.13;3.80;;;15.90;99.90;;;;;;6182831;23;20188;-73
2021/07/05 04:42:44;;;;;;;6.57;3.42;;;15.90;99.90;;;;;;6182661;23;20530;-73
2021/07/05 04:45:12;;;;;;;3.42;3.00;;;16.00;99.90;;;;;;6182525;23;20540;-73
2021/07/05 04:47:42;;;;;;;5.93;3.55;;;16.10;99.90;;;;;;6181780;23;20251;-74
2021/07/05 04:50:11;;;;;;;9.05;3.88;;;16.10;99.90;;;;;;6182026;23;20184;-73
2021/07/05 04:52:38;;;;;;;7.97;3.88;;;16.20;99.90;;;;;;6182026;23;20242;-73
2021/07/05 04:55:08;;;;;;;9.32;4.65;;;16.40;99.90;;;;;;6182365;23;20482;-73
2021/07/05 04:57:36;;;;;;;9.95;4.35;;;16.40;99.90;;;;;;6182783;23;20160;-74
2021/07/05 05:00:05;;;;;;;4.07;3.55;;;16.40;99.90;;;;;;6181949;23;20210;-73
2021/07/05 05:02:33;;;;;;;6.93;3.17;;;16.50;99.90;;;;;;6182509;23;20156;-73
2021/07/05 05:05:01;;;;;;;7.25;3.40;;;16.50;99.90;;;;;;6183091;23;20235;-74
2021/07/05 05:07:28;;;;;;;7.82;4.95;;;16.70;99.90;;;;;;6182763;23;20234;-74
2021/07/05 05:10:00;;;;;;;14.95;6.35;;;17.00;99.90;;;;;;6182933;23;20210;-74
2021/07/05 05:12:27;;;;;;;11.88;6.13;;;17.00;99.90;;;;;;6183328;23;20180;-74
2021/07/05 05:14:54;;;;;;;10.75;4.80;;;17.20;99.90;;;;;;6183149;23;20183;-74
2021/07/05 05:17:22;;;;;;;9.88;4.95;;;17.90;99.90;;;;;;6182809;23;20187;-74
2021/07/05 05:19:49;;;;;;;4.90;3.80;;;18.20;99.90;;;;;;6182902;23;20160;-73
2021/07/05 05:22:17;;;;;;;7.18;4.28;;;18.50;99.90;;;;;;6181833;23;20207;-74
2021/07/05 05:24:44;;;;;;;3.17;2.88;;;18.30;99.90;;;;;;6182943;23;20538;-74
2021/07/05 05:27:12;;;;;;;5.80;3.50;;;18.30;99.90;;;;;;6182174;23;20163;-73
2021/07/05 05:29:39;;;;;;;4.93;2.70;;;18.20;99.90;;;;;;6181514;23;20160;-74
2021/07/05 05:32:07;;;;;;;4.63;3.10;;;18.00;99.90;;;;;;6182703;23;20211;-74
2021/07/05 05:34:34;;;;;;;3.10;2.10;;;18.10;99.90;;;;;;6181299;23;20160;-72
2021/07/05 05:37:01;;;;;;;4.78;2.78;;;17.90;99.90;;;;;;6180513;23;20156;-72
2021/07/05 05:39:30;;;;;;;2.70;2.13;;;18.10;99.90;;;;;;6183660;23;20164;-72
2021/07/05 05:41:57;;;;;;;4.03;2.45;;;18.00;99.90;;;;;;6181514;23;20164;-72
2021/07/05 05:44:24;;;;;;;3.78;2.55;;;18.00;99.90;;;;;;6182893;23;20234;-72
2021/07/05 05:46:51;;;;;;;3.42;2.65;;;18.00;99.90;;;;;;6182402;23;20164;-73
2021/07/05 05:49:18;;;;;;;3.40;2.30;;;18.50;99.90;;;;;;6183368;23;20156;-72
2021/07/05 05:51:45;;;;;;;2.92;2.30;;;19.10;99.90;;;;;;6181518;23;20177;-74
2021/07/05 05:54:12;;;;;;;4.53;2.47;;;19.10;99.90;;;;;;6183366;23;20215;-74
2021/07/05 05:56:41;;;;;;;2.95;1.80;;;19.30;99.90;;;;;;6181121;23;20160;-74
2021/07/05 05:59:10;;;;;;;6.50;2.25;;;19.60;99.90;;;;;;6183398;23;20304;-74
2021/07/05 06:01:40;;;;;;;4.55;2.10;;;19.20;99.90;;;;;;6182565;23;20159;-74
2021/07/05 06:04:07;;;;;;;3.15;2.20;;;18.90;99.90;;;;;;6183589;23;20505;-74
2021/07/05 06:06:37;;;;;;;2.88;2.13;;;18.70;99.90;;;;;;6183047;23;20180;-73
2021/07/05 06:09:04;;;;;;;2.20;2.00;;;18.30;99.90;;;;;;6183504;23;20633;-74
2021/07/05 06:11:31;;;;;;;3.35;2.40;;;18.60;99.90;;;;;;6182993;23;20164;-74
2021/07/05 06:14:00;;;;;;;4.90;2.28;;;18.50;99.90;;;;;;6183299;23;20180;-74
2021/07/05 06:16:27;;;;;;;4.00;2.38;;;18.30;99.90;;;;;;6183220;23;20214;-74
2021/07/05 06:18:54;;;;;;;4.10;2.40;;;18.40;99.90;;;;;;6183211;23;20226;-74
2021/07/05 06:21:21;;;;;;;4.15;2.50;;;18.50;99.90;;;;;;6182832;23;20164;-74
2021/07/05 06:23:48;;;;;;;3.80;2.72;;;18.50;99.90;;;;;;6182741;23;20187;-74
2021/07/05 06:26:16;;;;;;;3.55;2.67;;;18.30;99.90;;;;;;6183441;23;20184;-74
2021/07/05 06:28:43;;;;;;;3.17;2.42;;;18.30;99.90;;;;;;6182721;23;20157;-74
2021/07/05 06:31:11;;;;;;;3.13;2.58;;;18.30;99.90;;;;;;6183399;23;20210;-73
2021/07/05 06:33:38;;;;;;;2.72;2.47;;;18.30;99.90;;;;;;6182795;23;20198;-73
2021/07/05 06:36:06;;;;;;;4.72;2.60;;;18.30;99.90;;;;;;6183632;23;20156;-73
2021/07/05 06:38:34;;;;;;;5.63;2.55;;;18.50;99.90;;;;;;6183384;23;20164;-74
2021/07/05 06:41:01;;;;;;;2.65;2.38;;;18.30;99.90;;;;;;6183126;23;20230;-74
2021/07/05 06:43:28;;;;;;;2.85;2.60;;;18.40;99.90;;;;;;6182391;23;20211;-73
2021/07/05 06:45:55;;;;;;;3.40;2.58;;;18.40;99.90;;;;;;6183015;23;20183;-74
2021/07/05 06:48:23;;;;;;;3.55;2.60;;;18.50;99.90;;;;;;6182458;23;20156;-74
2021/07/05 06:50:50;;;;;;;4.75;2.45;;;18.60;99.90;;;;;;6182349;23;20160;-74
2021/07/05 06:53:17;;;;;;;2.95;2.60;;;18.50;99.90;;;;;;6183050;23;20160;-74
2021/07/05 06:55:44;;;;;;;3.00;2.70;;;18.50;99.90;;;;;;6183877;23;20226;-74
2021/07/05 06:58:11;;;;;;;3.45;2.63;;;18.60;99.90;;;;;;6184923;23;20168;-73
2021/07/05 07:00:39;;;;;;;2.97;2.72;;;18.70;99.90;;;;;;6184557;23;20165;-74
2021/07/05 07:03:06;;;;;;;4.10;2.55;;;18.80;99.90;;;;;;6185118;23;20298;-73
2021/07/05 07:05:35;;;;;;;3.50;2.70;;;19.00;99.90;;;;;;6184655;23;20506;-74
2021/07/05 07:08:03;;;;;;;5.45;2.70;;;19.00;99.90;;;;;;6185002;23;20187;-73
2021/07/05 07:10:30;;;;;;;3.10;2.80;;;18.90;99.90;;;;;;6184375;23;20202;-73
2021/07/05 07:12:58;;;;;;;3.42;2.55;;;19.00;99.90;;;;;;6185178;23;20226;-74
2021/07/05 07:15:30;;;;;;;3.88;2.60;;;19.10;99.90;;;;;;6184821;23;20176;-74
2021/07/05 07:18:01;;;;;;;3.92;2.08;;;19.30;99.90;;;;;;6184391;23;20602;-73
2021/07/05 07:20:28;;;;;;;2.35;2.20;;;19.50;99.90;;;;;;6184658;23;20263;-73
2021/07/05 07:22:56;;;;;;;3.38;2.30;;;19.60;99.90;;;;;;6184352;23;20168;-74
2021/07/05 07:25:23;;;;;;;3.10;2.50;;;19.60;99.90;;;;;;6185093;23;20180;-74
2021/07/05 07:27:50;;;;;;;5.07;3.00;;;19.70;99.90;;;;;;6184447;23;20657;-73
2021/07/05 07:30:19;;;;;;;2.05;1.90;;;19.70;99.90;;;;;;6184279;23;20183;-73
2021/07/05 07:32:47;;;;;;;2.80;2.47;;;19.80;99.90;;;;;;6184092;23;20164;-74
2021/07/05 07:35:16;;;;;;;2.10;2.00;;;19.90;99.90;;;;;;6184979;23;20160;-74
2021/07/05 07:37:45;;;;;;;3.45;2.20;;;20.10;99.90;;;;;;6184200;23;20546;-74
2021/07/05 07:40:18;;;;;;;2.53;2.05;;;20.20;99.90;;;;;;6184606;23;20556;-74
2021/07/05 07:42:46;;;;;;;3.35;2.10;;;20.10;99.90;;;;;;6184376;23;20179;-74
2021/07/05 07:45:14;;;;;;;3.88;2.10;;;20.10;99.90;;;;;;6184949;23;20308;-74
2021/07/05 07:47:42;;;;;;;1.70;1.60;;;20.10;99.90;;;;;;6184011;23;20611;-74
2021/07/05 07:50:11;;;;;;;3.75;2.38;;;20.30;99.90;;;;;;6184103;23;20168;-74
2021/07/05 07:52:38;;;;;;;7.13;2.92;;;20.50;99.90;;;;;;6185284;23;20206;-74
2021/07/05 07:55:07;;;;;;;4.25;2.45;;;20.70;99.90;;;;;;6184331;23;20168;-74
2021/07/05 07:57:36;;;;;;;5.03;2.72;;;20.80;99.90;;;;;;6184205;23;20171;-73
2021/07/05 08:00:04;;;;;;;2.20;2.10;;;20.80;99.90;;;;;;6184073;23;20459;-73
2021/07/05 08:02:31;;;;;;;5.00;2.40;;;20.80;99.90;;;;;;6183724;23;20489;-73
2021/07/05 08:04:58;;;;;;;4.72;2.20;;;20.90;99.90;;;;;;6184032;23;20156;-73
2021/07/05 08:07:25;;;;;;;2.55;2.33;;;20.90;99.90;;;;;;6183819;23;20234;-73
2021/07/05 08:09:54;;;;;;;3.15;2.67;;;20.80;99.90;;;;;;6183886;23;20156;-73
2021/07/05 08:12:21;;;;;;;2.80;2.50;;;20.90;99.90;;;;;;6184295;23;20199;-73
2021/07/05 08:14:49;;;;;;;2.80;2.33;;;20.50;99.90;;;;;;6184130;23;20156;-73
2021/07/05 08:17:16;;;;;;;2.30;2.10;;;20.60;99.90;;;;;;6183988;23;20168;-73
2021/07/05 08:19:44;;;;;;;2.85;2.65;;;20.60;99.90;;;;;;6183739;23;20207;-73
2021/07/05 08:22:11;;;;;;;4.80;2.50;;;20.70;99.90;;;;;;6183760;23;20230;-73
2021/07/05 08:24:38;;;;;;;2.70;2.45;;;20.70;99.90;;;;;;6184206;23;20156;-73
2021/07/05 08:27:05;;;;;;;3.15;2.40;;;20.60;99.90;;;;;;6183678;23;20234;-73
2021/07/05 08:29:32;;;;;;;3.35;2.50;;;20.50;99.90;;;;;;6183700;23;20156;-73
2021/07/05 08:32:00;;;;;;;3.67;2.88;;;20.60;99.90;;;;;;6183674;23;20534;-73
2021/07/05 08:34:27;;;;;;;3.72;2.72;;;20.70;99.90;;;;;;6184312;23;20160;-73
2021/07/05 08:36:54;;;;;;;3.63;2.67;;;20.50;99.90;;;;;;6183623;23;20665;-73
2021/07/05 08:39:21;;;;;;;2.55;2.35;;;20.60;99.90;;;;;;6184489;23;20587;-73
2021/07/05 08:41:48;;;;;;;5.45;3.35;;;20.60;99.90;;;;;;6183140;23;20187;-73
2021/07/05 08:44:16;;;;;;;8.32;3.97;;;20.70;99.90;;;;;;6182957;23;20164;-73
2021/07/05 08:46:44;;;;;;;2.90;2.70;;;20.80;99.90;;;;;;6183377;23;20218;-73
2021/07/05 08:49:13;;;;;;;4.40;3.13;;;21.00;99.90;;;;;;6182842;23;20214;-72
2021/07/05 08:51:40;;;;;;;3.88;2.38;;;20.80;99.90;;;;;;6182956;23;20156;-73
2021/07/05 08:54:07;;;;;;;3.35;2.75;;;20.60;99.90;;;;;;6182939;23;20160;-73
2021/07/05 08:56:34;;;;;;;2.50;2.30;;;20.70;99.90;;;;;;6183280;23;20164;-73
2021/07/05 08:59:01;;;;;;;5.03;2.58;;;20.50;99.90;;;;;;6183613;23;20219;-73
2021/07/05 09:01:28;;;;;;;4.90;2.67;;;20.50;99.90;;;;;;6183866;23;20527;-73
2021/07/05 09:03:55;;;;;;;3.72;2.67;;;20.70;99.90;;;;;;6183827;23;20160;-73
2021/07/05 09:06:24;;;;;;;8.52;3.00;;;20.70;99.90;;;;;;6183876;23;20206;-73
2021/07/05 09:09:09;;;;;;;3.75;2.72;;;20.70;99.90;;;;;;6183309;23;20346;-73
2021/07/05 09:11:41;;;;;;;2.53;2.33;;;20.40;99.90;;;;;;6183364;23;20233;-73
2021/07/05 09:14:16;;;;;;;5.35;2.30;;;20.50;99.90;;;;;;6183401;23;20207;-73
2021/07/05 09:16:45;;;;;;;4.25;2.20;;;20.40;99.90;;;;;;6183829;23;20521;-73
2021/07/05 09:19:17;;;;;;;3.42;2.15;;;20.40;99.90;;;;;;6183343;23;20194;-72
2021/07/05 09:21:49;;;;;;;4.32;2.28;;;20.80;99.90;;;;;;6183126;23;20164;-73
2021/07/05 09:24:27;;;;;;;2.30;2.20;;;20.80;99.90;;;;;;6180987;23;20160;-73
2021/07/05 09:27:07;;;;;;;2.92;2.22;;;20.80;99.90;;;;;;6181766;23;20188;-73
2021/07/05 09:29:34;;;;;;;5.57;2.33;;;20.80;99.90;;;;;;6182678;23;20465;-73
2021/07/05 09:32:04;;;;;;;4.03;2.50;;;20.80;99.90;;;;;;6183603;23;20164;-73
2021/07/05 09:34:33;;;;;;;3.65;2.50;;;21.00;99.90;;;;;;6175336;23;20226;-73
2021/07/05 09:37:15;;;;;;;2.08;1.83;;;20.80;99.90;;;;;;6175473;23;20184;-73
2021/07/05 09:39:42;;;;;;;2.05;1.95;;;20.60;99.90;;;;;;6174257;23;20184;-73
2021/07/05 09:42:12;;;;;;;3.47;1.98;;;20.40;99.90;;;;;;6175452;23;20188;-74
2021/07/05 09:44:43;;;;;;;1.88;1.77;;;20.40;99.90;;;;;;6174726;23;20629;-73
2021/07/05 09:47:16;;;;;;;2.03;1.92;;;20.50;99.90;;;;;;6174049;23;20578;-73
2021/07/05 09:49:46;;;;;;;3.38;2.42;;;20.50;99.90;;;;;;6174113;23;20513;-73
2021/07/05 09:52:17;;;;;;;2.40;2.20;;;20.50;99.90;;;;;;6175660;23;20183;-73
2021/07/05 09:54:47;;;;;;;4.00;2.85;;;20.50;99.90;;;;;;6175890;23;20180;-73
2021/07/05 09:57:29;;;;;;;3.90;2.50;;;20.40;99.90;;;;;;6173809;23;20176;-73
2021/07/05 10:00:00;;;;;;;2.53;2.25;;;20.20;99.90;;;;;;6175126;23;20188;-73
2021/07/05 10:02:27;;;;;;;4.22;2.55;;;20.30;99.90;;;;;;6174387;23;20295;-74
2021/07/05 10:05:10;;;;;;;3.85;2.78;;;20.00;99.90;;;;;;6175369;23;20183;-74
2021/07/05 10:07:38;;;;;;;2.97;2.40;;;19.80;99.90;;;;;;6183297;22;20203;-75
2021/07/05 10:10:12;;;;;;;2.95;2.42;;;19.80;99.90;;;;;;6208741;23;20256;-75
2021/07/05 10:12:38;;;;;;;2.80;2.60;;;19.60;99.90;;;;;;6209997;23;20190;-74
2021/07/05 10:15:09;;;;;;;3.70;2.97;;;19.60;99.90;;;;;;6208648;23;20726;-75
2021/07/05 10:17:39;;;;;;;3.80;2.53;;;19.40;99.90;;;;;;6208831;23;20838;-75
2021/07/05 10:20:11;;;;;;;2.60;2.40;;;19.00;99.90;;;;;;6208336;23;20517;-75
2021/07/05 10:22:40;;;;;;;4.65;3.35;;;19.20;99.90;;;;;;6209653;23;20633;-75
2021/07/05 10:25:08;;;;;;;3.90;2.95;;;19.10;99.90;;;;;;6208096;23;20179;-75
2021/07/05 10:27:35;;;;;;;4.30;2.80;;;19.00;99.90;;;;;;6209071;23;20221;-75
2021/07/05 10:30:03;;;;;;;4.32;2.78;;;18.70;99.90;;;;;;6208857;23;20277;-75
2021/07/05 10:32:31;;;;;;;3.85;3.03;;;18.70;99.90;;;;;;6210441;23;20190;-75
2021/07/05 10:34:58;;;;;;;5.68;3.45;;;18.70;99.90;;;;;;6211115;23;20504;-75
2021/07/05 10:37:32;;;;;;;4.90;2.78;;;18.70;99.90;;;;;;6211574;23;20663;-75
2021/07/05 10:40:01;;;;;;;3.78;2.65;;;18.50;99.90;;;;;;6210085;23;20194;-75
2021/07/05 10:42:38;;;;;;;5.80;2.47;;;18.60;99.90;;;;;;6210472;23;20262;-75
2021/07/05 10:45:08;;;;;;;3.00;2.65;;;18.60;99.90;;;;;;6210759;23;20186;-75
2021/07/05 10:47:48;;;;;;;2.85;2.65;;;18.30;99.90;;;;;;6209595;23;20286;-75
2021/07/05 10:50:44;;;;;;;3.78;3.03;;;18.50;99.90;;;;;;6210144;23;20183;-75
2021/07/05 10:53:12;;;;;;;5.13;3.40;;;18.50;99.90;;;;;;6211516;23;20274;-75
2021/07/05 10:55:43;;;;;;;6.43;3.55;;;18.60;99.90;;;;;;6210761;23;20179;-75
2021/07/05 10:58:21;;;;;;;3.55;3.17;;;18.50;99.90;;;;;;6210605;23;20187;-75
2021/07/05 11:00:50;;;;;;;4.40;2.67;;;18.60;99.90;;;;;;6210354;23;20506;-75
2021/07/05 11:03:46;;;;;;;5.00;2.40;;;18.60;99.90;;;;;;6211535;23;20587;-74
2021/07/05 11:06:42;;;;;;;5.65;3.13;;;18.80;99.90;;;;;;6210669;23;20195;-72
2021/07/05 11:09:09;;;;;;;5.95;3.85;;;18.60;99.90;;;;;;6210622;23;20206;-74
2021/07/05 11:11:47;;;;;;;1.75;1.65;;;18.80;99.90;;;;;;6210514;23;20269;-73
2021/07/05 11:14:21;;;;;;;2.97;1.73;;;18.60;99.90;;;;;;6211248;23;20183;-73
2021/07/05 11:17:04;;;;;;;2.80;1.55;;;18.70;99.90;;;;;;6210740;23;20174;-74
2021/07/05 11:19:44;;;;;;;2.88;1.52;;;18.90;99.90;;;;;;6210666;23;20484;-74
2021/07/05 11:22:18;;;;;;;2.10;1.60;;;19.30;99.90;;;;;;6210866;23;20207;-74
2021/07/05 11:24:57;;;;;;;1.75;1.65;;;19.50;99.90;;;;;;6214947;23;20164;-73
2021/07/05 11:27:48;;;;;;;2.08;1.90;;;20.00;99.90;;;;;;6206770;23;20281;-74
2021/07/05 11:30:38;;;;;;;3.08;2.20;;;20.30;99.90;;;;;;6211350;23;20222;-73
2021/07/05 11:33:24;;;;;;;5.68;2.72;;;20.40;99.90;;;;;;6210423;23;20187;-74
2021/07/05 11:35:54;;;;;;;3.30;2.20;;;20.90;99.90;;;;;;6210390;23;20182;-74
2021/07/05 11:38:30;;;;;;;3.00;2.80;;;20.90;99.90;;;;;;6210144;23;20201;-74
2021/07/05 11:41:01;;;;;;;4.07;2.55;;;21.30;99.90;;;;;;6210903;23;20178;-74
2021/07/05 11:43:51;;;;;;;2.50;2.30;;;21.30;99.90;;;;;;6210440;23;20179;-74
2021/07/05 11:46:34;;;;;;;2.95;2.25;;;21.10;99.90;;;;;;6210701;23;20202;-74
2021/07/05 11:49:04;;;;;;;2.67;1.80;;;21.00;99.90;;;;;;6208885;23;20822;-74
2021/07/05 11:51:35;;;;;;;1.60;1.50;;;21.60;99.90;;;;;;6210535;23;20237;-74
2021/07/05 11:54:03;;;;;;;1.50;1.40;;;21.50;99.90;;;;;;6210864;23;20704;-74
2021/07/05 11:56:41;;;;;;;2.63;1.98;;;21.50;99.90;;;;;;6211056;23;20181;-74
2021/07/05 11:59:11;;;;;;;2.50;1.90;;;21.50;99.90;;;;;;6215215;23;20159;-74
2021/07/05 12:01:42;;;;;;;2.03;1.92;;;21.80;99.90;;;;;;6208718;23;20270;-73
2021/07/05 12:04:10;;;;;;;2.30;2.10;;;22.40;99.90;;;;;;6209515;23;20512;-73
2021/07/05 12:06:37;;;;;;;36.63;16.27;;;22.40;99.90;;;;;;6209612;23;20249;-73
2021/07/05 12:09:06;;;;;;;5.78;2.78;;;22.60;99.90;;;;;;6211206;23;20382;-73
2021/07/05 12:11:40;;;;;;;2.78;2.40;;;23.10;99.90;;;;;;6210146;23;20201;-73
2021/07/05 12:14:12;;;;;;;2.10;2.00;;;23.50;99.90;;;;;;6210853;23;20179;-73
2021/07/05 12:16:41;;;;;;;2.95;2.08;;;23.20;99.90;;;;;;6210384;23;20205;-71
2021/07/05 12:19:12;;;;;;;1.95;1.80;;;22.70;99.90;;;;;;6211486;23;20543;-73
2021/07/05 12:21:42;;;;;;;2.08;1.88;;;22.90;99.90;;;;;;6210900;23;20495;-73
2021/07/05 12:24:11;;;;;;;1.73;1.63;;;23.10;99.90;;;;;;6210410;23;20183;-73
2021/07/05 12:26:43;;;;;;;1.88;1.63;;;23.40;99.90;;;;;;6210333;23;20221;-73
2021/07/05 12:29:14;;;;;;;1.52;1.42;;;23.70;99.90;;;;;;6210316;23;20183;-73
2021/07/05 12:32:04;;;;;;;3.03;1.58;;;22.70;99.90;;;;;;6214182;23;20163;-73
2021/07/05 12:34:53;;;;;;;1.55;1.45;;;23.10;99.90;;;;;;6211077;23;20236;-73
2021/07/05 12:37:27;;;;;;;1.35;1.27;;;23.50;99.90;;;;;;6197807;23;20182;-73
2021/07/05 12:40:01;;;;;;;1.58;1.48;;;22.90;99.90;;;;;;6210523;23;20179;-73
2021/07/05 12:42:34;;;;;;;1.35;1.33;;;22.90;99.90;;;;;;6211232;23;20179;-73
2021/07/05 12:45:07;;;;;;;1.45;1.35;;;23.00;99.90;;;;;;6210758;23;20189;-73
2021/07/05 12:47:45;;;;;;;1.20;1.20;;;22.90;99.90;;;;;;6210038;23;20526;-73
2021/07/05 12:50:14;;;;;;;1.52;1.42;;;22.50;99.90;;;;;;6209855;23;20262;-73
2021/07/05 12:52:41;;;;;;;1.40;1.30;;;22.70;99.90;;;;;;6210355;23;20179;-73
2021/07/05 12:55:12;;;;;;;2.17;1.27;;;22.60;99.90;;;;;;6210868;23;20179;-73
2021/07/05 12:57:49;;;;;;;1.55;1.45;;;23.10;99.90;;;;;;6210631;23;20175;-73